createdAt,value
2017-01-07T00:01:00.390Z,0
2017-01-07T00:02:09.490Z,0
2017-01-07T00:03:18.234Z,0
2017-01-07T00:04:27.363Z,0
2017-01-07T00:05:36.851Z,0
2017-01-07T00:06:45.952Z,0
2017-01-07T00:07:54.678Z,0
2017-01-07T00:09:03.373Z,0
2017-01-07T00:10:12.867Z,0
2017-01-07T00:11:21.944Z,0
2017-01-07T00:12:31.411Z,0
2017-01-07T00:13:40.894Z,0
2017-01-07T00:14:49.994Z,0
2017-01-07T00:15:58.700Z,0
2017-01-07T00:17:07.444Z,0
2017-01-07T00:18:16.140Z,0
2017-01-07T00:19:25.257Z,0
2017-01-07T00:20:34.349Z,0
2017-01-07T00:21:43.434Z,0
2017-01-07T00:22:52.514Z,0
2017-01-07T00:24:01.216Z,0
2017-01-07T00:25:10.350Z,0
2017-01-07T00:26:19.447Z,0
2017-01-07T00:27:28.969Z,0
2017-01-07T00:28:38.098Z,0
2017-01-07T00:29:47.590Z,0
2017-01-07T00:30:56.697Z,0
2017-01-07T00:32:06.944Z,0
2017-01-07T00:33:16.062Z,0
2017-01-07T00:34:25.531Z,0
2017-01-07T00:35:34.613Z,0
2017-01-07T00:36:43.696Z,0
2017-01-07T00:37:52.425Z,0
2017-01-07T00:39:01.141Z,0
2017-01-07T00:40:10.998Z,0
2017-01-07T00:41:20.093Z,0
2017-01-07T00:42:28.785Z,0
2017-01-07T00:43:37.867Z,0
2017-01-07T00:44:47.340Z,0
2017-01-07T00:45:56.451Z,0
2017-01-07T00:47:05.145Z,0
2017-01-07T00:48:14.618Z,0
2017-01-07T00:49:23.702Z,0
2017-01-07T00:50:32.410Z,0
2017-01-07T00:51:41.489Z,0
2017-01-07T00:52:50.610Z,0
2017-01-07T00:53:59.334Z,0
2017-01-07T00:55:08.835Z,0
2017-01-07T00:56:17.943Z,0
2017-01-07T00:57:26.654Z,0
2017-01-07T00:58:35.764Z,0
2017-01-07T00:59:44.851Z,0
2017-01-07T01:00:53.928Z,0
2017-01-07T01:02:03.422Z,0
2017-01-07T01:03:13.042Z,0
2017-01-07T01:04:22.521Z,0
2017-01-07T01:05:32.427Z,0
2017-01-07T01:06:41.119Z,0
2017-01-07T01:07:50.607Z,0
2017-01-07T01:08:59.314Z,0
2017-01-07T01:10:08.428Z,0
2017-01-07T01:11:17.910Z,0
2017-01-07T01:12:27.383Z,0
2017-01-07T01:13:36.071Z,0
2017-01-07T01:14:45.557Z,0
2017-01-07T01:15:54.650Z,0
2017-01-07T01:17:03.350Z,0
2017-01-07T01:18:12.529Z,0
2017-01-07T01:19:21.644Z,0
2017-01-07T01:20:30.341Z,0
2017-01-07T01:21:39.436Z,0
2017-01-07T01:22:48.501Z,0
2017-01-07T01:23:57.594Z,0
2017-01-07T01:25:06.300Z,0
2017-01-07T01:26:16.161Z,0
2017-01-07T01:27:25.240Z,0
2017-01-07T01:28:35.152Z,0
2017-01-07T01:29:44.286Z,0
2017-01-07T01:30:52.984Z,0
2017-01-07T01:32:01.719Z,0
2017-01-07T01:33:10.839Z,0
2017-01-07T01:34:19.934Z,0
2017-01-07T01:35:29.051Z,0
2017-01-07T01:36:37.777Z,0
2017-01-07T01:37:46.478Z,0
2017-01-07T01:38:55.170Z,0
2017-01-07T01:40:03.876Z,0
2017-01-07T01:41:12.967Z,0
2017-01-07T01:42:21.702Z,0
2017-01-07T01:43:30.823Z,0
2017-01-07T01:44:39.960Z,0
2017-01-07T01:45:49.062Z,0
2017-01-07T01:46:58.160Z,0
2017-01-07T01:48:07.650Z,0
2017-01-07T01:49:16.366Z,0
2017-01-07T01:50:25.470Z,0
2017-01-07T01:51:34.542Z,0
2017-01-07T01:52:44.794Z,0
2017-01-07T01:53:53.952Z,0
2017-01-07T01:55:02.658Z,0
2017-01-07T01:56:12.133Z,0
2017-01-07T01:57:21.612Z,0
2017-01-07T01:58:30.306Z,0
2017-01-07T01:59:39.420Z,0
2017-01-07T02:00:49.296Z,0
2017-01-07T02:01:58.771Z,0
2017-01-07T02:03:07.476Z,0
2017-01-07T02:04:16.941Z,0
2017-01-07T02:05:26.430Z,0
2017-01-07T02:06:35.522Z,0
2017-01-07T02:07:44.215Z,0
2017-01-07T02:08:53.699Z,0
2017-01-07T02:10:02.422Z,0
2017-01-07T02:11:11.516Z,0
2017-01-07T02:12:20.216Z,0
2017-01-07T02:13:30.473Z,0
2017-01-07T02:14:39.179Z,0
2017-01-07T02:15:47.869Z,0
2017-01-07T02:16:56.578Z,0
2017-01-07T02:18:05.683Z,0
2017-01-07T02:19:15.556Z,0
2017-01-07T02:20:24.682Z,0
2017-01-07T02:21:33.381Z,0
2017-01-07T02:22:42.080Z,0
2017-01-07T02:23:51.591Z,0
2017-01-07T02:25:00.688Z,0
2017-01-07T02:26:09.786Z,0
2017-01-07T02:27:19.256Z,0
2017-01-07T02:28:28.725Z,0
2017-01-07T02:29:38.207Z,0
2017-01-07T02:30:47.356Z,0
2017-01-07T02:31:56.450Z,0
2017-01-07T02:33:05.532Z,0
2017-01-07T02:34:15.002Z,0
2017-01-07T02:35:24.518Z,0
2017-01-07T02:36:33.660Z,0
2017-01-07T02:37:42.431Z,0
2017-01-07T02:38:51.517Z,0
2017-01-07T02:40:00.251Z,0
2017-01-07T02:41:08.948Z,0
2017-01-07T02:42:17.669Z,0
2017-01-07T02:43:26.453Z,0
2017-01-07T02:44:36.028Z,0
2017-01-07T02:45:45.545Z,0
2017-01-07T02:46:54.634Z,0
2017-01-07T02:48:04.102Z,0
2017-01-07T02:49:13.571Z,0
2017-01-07T02:50:22.259Z,0
2017-01-07T02:51:32.138Z,0
2017-01-07T02:52:40.845Z,0
2017-01-07T02:53:49.922Z,0
2017-01-07T02:54:58.637Z,0
2017-01-07T02:56:07.713Z,0
2017-01-07T02:57:16.472Z,0
2017-01-07T02:58:25.691Z,0
2017-01-07T02:59:34.432Z,0
2017-01-07T03:00:43.544Z,0
2017-01-07T03:01:52.252Z,0
2017-01-07T03:03:01.406Z,0
2017-01-07T03:04:10.099Z,0
2017-01-07T03:05:19.568Z,0
2017-01-07T03:06:29.072Z,0
2017-01-07T03:07:37.806Z,0
2017-01-07T03:08:47.291Z,0
2017-01-07T03:09:56.389Z,0
2017-01-07T03:11:05.546Z,0
2017-01-07T03:12:15.066Z,0
2017-01-07T03:13:24.184Z,0
2017-01-07T03:14:32.873Z,0
2017-01-07T03:15:41.972Z,0
2017-01-07T03:16:51.072Z,0
2017-01-07T03:18:00.585Z,0
2017-01-07T03:19:10.088Z,0
2017-01-07T03:20:18.838Z,0
2017-01-07T03:21:27.912Z,0
2017-01-07T03:22:37.000Z,0
2017-01-07T03:23:45.739Z,0
2017-01-07T03:24:54.808Z,0
2017-01-07T03:26:03.519Z,0
2017-01-07T03:27:12.632Z,0
2017-01-07T03:28:21.734Z,0
2017-01-07T03:29:30.824Z,0
2017-01-07T03:30:39.892Z,0
2017-01-07T03:31:48.596Z,0
2017-01-07T03:32:57.685Z,0
2017-01-07T03:34:06.399Z,0
2017-01-07T03:35:15.146Z,0
2017-01-07T03:36:23.843Z,0
2017-01-07T03:37:33.342Z,0
2017-01-07T03:38:42.817Z,0
2017-01-07T03:39:51.523Z,0
2017-01-07T03:41:00.637Z,0
2017-01-07T03:42:09.734Z,0
2017-01-07T03:43:19.210Z,0
2017-01-07T03:44:27.893Z,0
2017-01-07T03:45:36.611Z,0
2017-01-07T03:46:45.722Z,0
2017-01-07T03:47:54.812Z,0
2017-01-07T03:49:03.545Z,0
2017-01-07T03:50:12.267Z,0
2017-01-07T03:51:21.430Z,0
2017-01-07T03:52:30.541Z,0
2017-01-07T03:53:39.261Z,0
2017-01-07T03:54:48.399Z,0
2017-01-07T03:55:57.495Z,0
2017-01-07T03:57:06.965Z,0
2017-01-07T03:58:15.701Z,0
2017-01-07T03:59:24.408Z,0
2017-01-07T04:00:33.523Z,0
2017-01-07T04:01:43.390Z,0
2017-01-07T04:02:52.510Z,0
2017-01-07T04:04:01.608Z,0
2017-01-07T04:05:11.531Z,0
2017-01-07T04:06:21.002Z,0
2017-01-07T04:07:29.726Z,0
2017-01-07T04:08:38.818Z,0
2017-01-07T04:09:48.295Z,0
2017-01-07T04:10:57.000Z,0
2017-01-07T04:12:06.114Z,0
2017-01-07T04:13:14.845Z,0
2017-01-07T04:14:24.328Z,0
2017-01-07T04:15:33.020Z,0
2017-01-07T04:16:42.496Z,0
2017-01-07T04:17:51.596Z,0
2017-01-07T04:19:00.288Z,0
2017-01-07T04:20:09.787Z,0
2017-01-07T04:21:19.275Z,0
2017-01-07T04:22:28.395Z,0
2017-01-07T04:23:37.476Z,0
2017-01-07T04:24:46.192Z,0
2017-01-07T04:25:55.293Z,0
2017-01-07T04:27:04.788Z,0
2017-01-07T04:28:13.883Z,0
2017-01-07T04:29:22.971Z,0
2017-01-07T04:30:32.068Z,0
2017-01-07T04:31:41.175Z,0
2017-01-07T04:32:51.463Z,0
2017-01-07T04:34:00.987Z,0
2017-01-07T04:35:10.099Z,0
2017-01-07T04:36:19.238Z,0
2017-01-07T04:37:28.355Z,0
2017-01-07T04:38:37.458Z,0
2017-01-07T04:39:46.143Z,0
2017-01-07T04:40:55.247Z,0
2017-01-07T04:42:03.941Z,0
2017-01-07T04:43:12.650Z,0
2017-01-07T04:44:21.367Z,0
2017-01-07T04:45:31.229Z,0
2017-01-07T04:46:40.740Z,0
2017-01-07T04:47:50.602Z,0
2017-01-07T04:48:59.678Z,0
2017-01-07T04:50:08.790Z,0
2017-01-07T04:51:17.862Z,0
2017-01-07T04:52:26.571Z,0
2017-01-07T04:53:35.671Z,0
2017-01-07T04:54:44.767Z,0
2017-01-07T04:55:53.862Z,0
2017-01-07T04:57:02.594Z,0
2017-01-07T04:58:11.734Z,0
2017-01-07T04:59:20.829Z,0
2017-01-07T05:00:29.920Z,0
2017-01-07T05:01:39.385Z,0
2017-01-07T05:02:48.085Z,0
2017-01-07T05:03:57.190Z,0
2017-01-07T05:05:06.672Z,0
2017-01-07T05:06:16.152Z,0
2017-01-07T05:07:24.859Z,0
2017-01-07T05:08:33.942Z,0
2017-01-07T05:09:42.672Z,0
2017-01-07T05:10:51.768Z,0
2017-01-07T05:12:01.267Z,0
2017-01-07T05:13:10.746Z,0
2017-01-07T05:14:19.448Z,0
2017-01-07T05:15:28.543Z,0
2017-01-07T05:16:38.075Z,0
2017-01-07T05:17:47.169Z,0
2017-01-07T05:18:55.884Z,0
2017-01-07T05:20:04.613Z,0
2017-01-07T05:21:13.731Z,0
2017-01-07T05:22:22.823Z,0
2017-01-07T05:23:31.534Z,0
2017-01-07T05:24:40.226Z,0
2017-01-07T05:25:49.312Z,0
2017-01-07T05:26:58.026Z,0
2017-01-07T05:28:07.458Z,0
2017-01-07T05:29:16.529Z,0
2017-01-07T05:30:25.995Z,0
2017-01-07T05:31:34.691Z,0
2017-01-07T05:32:44.158Z,0
2017-01-07T05:33:53.272Z,0
2017-01-07T05:35:02.390Z,0
2017-01-07T05:36:11.867Z,0
2017-01-07T05:37:20.576Z,0
2017-01-07T05:38:29.260Z,0
2017-01-07T05:39:38.734Z,0
2017-01-07T05:40:47.449Z,0
2017-01-07T05:41:56.528Z,0
2017-01-07T05:43:05.212Z,0
2017-01-07T05:44:14.327Z,0
2017-01-07T05:45:23.832Z,0
2017-01-07T05:46:32.566Z,0
2017-01-07T05:47:41.670Z,0
2017-01-07T05:48:50.400Z,0
2017-01-07T05:49:59.898Z,0
2017-01-07T05:51:08.635Z,0
2017-01-07T05:52:17.723Z,0
2017-01-07T05:53:26.415Z,0
2017-01-07T05:54:35.541Z,0
2017-01-07T05:55:44.222Z,0
2017-01-07T05:56:52.914Z,0
2017-01-07T05:58:02.025Z,0
2017-01-07T05:59:10.747Z,0
2017-01-07T06:00:19.840Z,0
2017-01-07T06:01:28.553Z,0
2017-01-07T06:02:37.639Z,0
2017-01-07T06:03:46.334Z,0
2017-01-07T06:04:55.020Z,0
2017-01-07T06:06:04.517Z,0
2017-01-07T06:07:13.977Z,0
2017-01-07T06:08:23.855Z,0
2017-01-07T06:09:33.341Z,0
2017-01-07T06:10:42.427Z,0
2017-01-07T06:11:51.518Z,0
2017-01-07T06:13:00.632Z,0
2017-01-07T06:14:09.721Z,0
2017-01-07T06:15:18.440Z,0
2017-01-07T06:16:27.551Z,0
2017-01-07T06:17:36.710Z,0
2017-01-07T06:18:45.389Z,0
2017-01-07T06:19:54.521Z,0
2017-01-07T06:21:03.217Z,0
2017-01-07T06:22:12.313Z,0
2017-01-07T06:23:21.423Z,0
2017-01-07T06:24:30.904Z,0
2017-01-07T06:25:40.388Z,0
2017-01-07T06:26:49.126Z,0
2017-01-07T06:27:57.865Z,0
2017-01-07T06:29:07.345Z,0
2017-01-07T06:30:17.214Z,0
2017-01-07T06:31:26.693Z,0
2017-01-07T06:32:35.785Z,0
2017-01-07T06:33:44.857Z,0
2017-01-07T06:34:53.967Z,0
2017-01-07T06:36:02.691Z,0
2017-01-07T06:37:12.357Z,0
2017-01-07T06:38:21.067Z,0
2017-01-07T06:39:30.137Z,0
2017-01-07T06:40:38.837Z,0
2017-01-07T06:41:47.600Z,0
2017-01-07T06:42:57.506Z,0
2017-01-07T06:44:06.989Z,0
2017-01-07T06:45:16.498Z,0
2017-01-07T06:46:25.192Z,0
2017-01-07T06:47:34.787Z,0
2017-01-07T06:48:44.276Z,0
2017-01-07T06:49:52.985Z,0
2017-01-07T06:51:02.472Z,0
2017-01-07T06:52:11.234Z,0
2017-01-07T06:53:20.329Z,0
2017-01-07T06:54:29.021Z,0
2017-01-07T06:55:38.095Z,0
2017-01-07T06:56:47.194Z,0
2017-01-07T06:57:57.061Z,0
2017-01-07T06:59:06.571Z,0
2017-01-07T07:00:15.663Z,0
2017-01-07T07:01:25.215Z,0
2017-01-07T07:02:33.908Z,0
2017-01-07T07:03:42.620Z,0
2017-01-07T07:04:51.310Z,0
2017-01-07T07:06:00.057Z,0
2017-01-07T07:07:09.583Z,0
2017-01-07T07:08:18.292Z,0
2017-01-07T07:09:27.384Z,0
2017-01-07T07:10:36.481Z,0
2017-01-07T07:11:45.167Z,0
2017-01-07T07:12:54.268Z,0
2017-01-07T07:14:04.160Z,4
2017-01-07T07:15:12.885Z,4
2017-01-07T07:16:22.352Z,4
2017-01-07T07:17:31.461Z,4
2017-01-07T07:18:40.590Z,0
2017-01-07T07:19:50.935Z,4
2017-01-07T07:21:00.013Z,4
2017-01-07T07:22:09.124Z,4
2017-01-07T07:23:18.197Z,4
2017-01-07T07:24:27.709Z,4
2017-01-07T07:25:36.785Z,8
2017-01-07T07:26:46.335Z,8
2017-01-07T07:27:55.080Z,8
2017-01-07T07:29:04.170Z,8
2017-01-07T07:30:12.914Z,12
2017-01-07T07:31:22.384Z,12
2017-01-07T07:32:31.495Z,12
2017-01-07T07:33:40.588Z,12
2017-01-07T07:34:50.117Z,16
2017-01-07T07:35:58.842Z,16
2017-01-07T07:37:07.925Z,16
2017-01-07T07:38:17.000Z,20
2017-01-07T07:39:25.719Z,20
2017-01-07T07:40:34.947Z,28
2017-01-07T07:41:44.031Z,28
2017-01-07T07:42:52.727Z,32
2017-01-07T07:44:01.808Z,32
2017-01-07T07:45:11.301Z,36
2017-01-07T07:46:19.999Z,32
2017-01-07T07:47:28.695Z,36
2017-01-07T07:48:38.175Z,36
2017-01-07T07:49:47.265Z,36
2017-01-07T07:50:56.351Z,40
2017-01-07T07:52:05.050Z,36
2017-01-07T07:53:14.137Z,40
2017-01-07T07:54:23.225Z,40
2017-01-07T07:55:31.944Z,44
2017-01-07T07:56:40.678Z,48
2017-01-07T07:57:49.394Z,48
2017-01-07T07:58:58.897Z,52
2017-01-07T08:00:07.995Z,60
2017-01-07T08:01:17.909Z,68
2017-01-07T08:02:46.226Z,72
2017-01-07T08:03:55.755Z,80
2017-01-07T08:05:04.490Z,88
2017-01-07T08:06:13.994Z,92
2017-01-07T08:07:23.120Z,100
2017-01-07T08:08:32.194Z,100
2017-01-07T08:09:42.077Z,100
2017-01-07T08:10:51.148Z,108
2017-01-07T08:12:00.230Z,116
2017-01-07T08:13:08.953Z,124
2017-01-07T08:14:18.456Z,132
2017-01-07T08:15:27.143Z,140
2017-01-07T08:16:36.285Z,152
2017-01-07T08:17:45.766Z,168
2017-01-07T08:18:55.230Z,180
2017-01-07T08:20:04.725Z,188
2017-01-07T08:21:13.816Z,192
2017-01-07T08:22:22.529Z,184
2017-01-07T08:23:31.239Z,176
2017-01-07T08:24:41.128Z,180
2017-01-07T08:25:50.976Z,184
2017-01-07T08:27:00.478Z,200
2017-01-07T08:28:09.565Z,220
2017-01-07T08:29:18.245Z,232
2017-01-07T08:30:27.772Z,244
2017-01-07T08:31:37.288Z,256
2017-01-07T08:32:46.396Z,260
2017-01-07T08:33:55.861Z,256
2017-01-07T08:35:04.583Z,248
2017-01-07T08:36:13.341Z,240
2017-01-07T08:37:22.453Z,228
2017-01-07T08:38:31.554Z,216
2017-01-07T08:39:40.302Z,200
2017-01-07T08:40:49.826Z,200
2017-01-07T08:41:58.551Z,224
2017-01-07T08:43:07.706Z,252
2017-01-07T08:44:16.426Z,264
2017-01-07T08:45:25.526Z,252
2017-01-07T08:46:34.218Z,244
2017-01-07T08:47:42.954Z,236
2017-01-07T08:48:52.436Z,236
2017-01-07T08:50:01.931Z,232
2017-01-07T08:51:11.398Z,224
2017-01-07T08:52:20.490Z,220
2017-01-07T08:53:29.203Z,232
2017-01-07T08:54:37.919Z,244
2017-01-07T08:55:47.416Z,264
2017-01-07T08:56:56.107Z,288
2017-01-07T08:58:05.594Z,320
2017-01-07T08:59:14.690Z,348
2017-01-07T09:00:23.779Z,352
2017-01-07T09:01:33.269Z,340
2017-01-07T09:02:41.992Z,332
2017-01-07T09:03:51.849Z,336
2017-01-07T09:05:00.926Z,340
2017-01-07T09:06:09.664Z,348
2017-01-07T09:07:18.412Z,380
2017-01-07T09:08:27.142Z,400
2017-01-07T09:09:35.900Z,404
2017-01-07T09:10:44.972Z,392
2017-01-07T09:11:54.455Z,392
2017-01-07T09:13:03.573Z,384
2017-01-07T09:14:12.264Z,356
2017-01-07T09:15:21.767Z,336
2017-01-07T09:16:31.292Z,324
2017-01-07T09:17:40.394Z,324
2017-01-07T09:18:49.910Z,340
2017-01-07T09:19:59.388Z,360
2017-01-07T09:21:08.075Z,384
2017-01-07T09:22:17.590Z,392
2017-01-07T09:23:26.751Z,404
2017-01-07T09:24:35.858Z,412
2017-01-07T09:25:45.339Z,404
2017-01-07T09:26:54.487Z,392
2017-01-07T09:28:04.421Z,384
2017-01-07T09:29:13.137Z,380
2017-01-07T09:30:21.883Z,372
2017-01-07T09:31:30.613Z,368
2017-01-07T09:32:40.141Z,360
2017-01-07T09:33:49.660Z,352
2017-01-07T09:34:58.786Z,348
2017-01-07T09:36:07.885Z,352
2017-01-07T09:37:16.996Z,348
2017-01-07T09:38:26.496Z,336
2017-01-07T09:39:35.227Z,324
2017-01-07T09:40:44.401Z,328
2017-01-07T09:41:53.876Z,332
2017-01-07T09:43:03.372Z,324
2017-01-07T09:44:12.484Z,312
2017-01-07T09:45:21.576Z,312
2017-01-07T09:46:31.480Z,328
2017-01-07T09:47:40.590Z,352
2017-01-07T09:48:49.313Z,360
2017-01-07T09:49:59.201Z,360
2017-01-07T09:51:08.322Z,356
2017-01-07T09:52:17.037Z,352
2017-01-07T09:53:26.166Z,344
2017-01-07T09:54:34.891Z,332
2017-01-07T09:55:44.801Z,316
2017-01-07T09:56:53.982Z,312
2017-01-07T09:58:02.704Z,328
2017-01-07T09:59:11.429Z,332
2017-01-07T10:00:20.521Z,356
2017-01-07T10:01:29.619Z,372
2017-01-07T10:02:39.218Z,380
2017-01-07T10:03:47.958Z,376
2017-01-07T10:04:57.505Z,380
2017-01-07T10:06:06.637Z,376
2017-01-07T10:07:15.762Z,360
2017-01-07T10:08:24.533Z,344
2017-01-07T10:09:33.692Z,316
2017-01-07T10:10:43.176Z,300
2017-01-07T10:11:52.298Z,288
2017-01-07T10:13:01.008Z,284
2017-01-07T10:14:10.495Z,280
2017-01-07T10:15:19.588Z,284
2017-01-07T10:16:29.096Z,308
2017-01-07T10:17:38.921Z,316
2017-01-07T10:18:48.638Z,304
2017-01-07T10:19:58.570Z,288
2017-01-07T10:21:07.741Z,280
2017-01-07T10:22:16.825Z,272
2017-01-07T10:23:25.903Z,268
2017-01-07T10:24:34.985Z,288
2017-01-07T10:25:43.675Z,284
2017-01-07T10:26:52.373Z,272
2017-01-07T10:28:01.466Z,268
2017-01-07T10:29:10.563Z,272
2017-01-07T10:30:19.438Z,272
2017-01-07T10:31:28.897Z,276
2017-01-07T10:32:38.770Z,280
2017-01-07T10:33:48.635Z,284
2017-01-07T10:34:57.731Z,280
2017-01-07T10:36:06.853Z,272
2017-01-07T10:37:15.563Z,272
2017-01-07T10:38:25.090Z,276
2017-01-07T10:39:34.193Z,280
2017-01-07T10:40:43.292Z,264
2017-01-07T10:41:51.987Z,252
2017-01-07T10:43:01.053Z,248
2017-01-07T10:44:09.770Z,248
2017-01-07T10:45:18.484Z,252
2017-01-07T10:46:27.958Z,260
2017-01-07T10:47:37.051Z,272
2017-01-07T10:48:45.744Z,276
2017-01-07T10:49:54.429Z,276
2017-01-07T10:51:03.127Z,280
2017-01-07T10:52:12.986Z,280
2017-01-07T10:53:22.072Z,292
2017-01-07T10:54:31.568Z,304
2017-01-07T10:55:40.659Z,308
2017-01-07T10:56:49.768Z,316
2017-01-07T10:58:00.039Z,320
2017-01-07T10:59:09.530Z,312
2017-01-07T11:00:18.638Z,312
2017-01-07T11:01:27.338Z,312
2017-01-07T11:02:36.441Z,316
2017-01-07T11:03:45.929Z,316
2017-01-07T11:04:55.009Z,320
2017-01-07T11:06:04.096Z,316
2017-01-07T11:07:13.961Z,308
2017-01-07T11:08:23.063Z,300
2017-01-07T11:09:32.129Z,284
2017-01-07T11:10:41.986Z,272
2017-01-07T11:11:51.067Z,268
2017-01-07T11:13:00.183Z,272
2017-01-07T11:14:09.261Z,288
2017-01-07T11:15:18.370Z,304
2017-01-07T11:16:27.486Z,320
2017-01-07T11:17:36.186Z,340
2017-01-07T11:18:45.674Z,364
2017-01-07T11:19:54.381Z,396
2017-01-07T11:21:03.453Z,412
2017-01-07T11:22:12.583Z,420
2017-01-07T11:23:22.061Z,416
2017-01-07T11:24:31.152Z,412
2017-01-07T11:25:40.622Z,416
2017-01-07T11:26:49.316Z,428
2017-01-07T11:27:58.429Z,440
2017-01-07T11:29:07.111Z,424
2017-01-07T11:30:16.617Z,416
2017-01-07T11:31:26.501Z,404
2017-01-07T11:32:35.209Z,376
2017-01-07T11:33:44.306Z,364
2017-01-07T11:34:53.037Z,368
2017-01-07T11:36:02.120Z,388
2017-01-07T11:37:10.860Z,436
2017-01-07T11:38:19.971Z,480
2017-01-07T11:39:29.088Z,488
2017-01-07T11:40:38.582Z,508
2017-01-07T11:41:48.045Z,504
2017-01-07T11:42:56.758Z,480
2017-01-07T11:44:06.283Z,464
2017-01-07T11:45:15.405Z,460
2017-01-07T11:46:24.527Z,456
2017-01-07T11:47:34.017Z,436
2017-01-07T11:48:43.577Z,412
2017-01-07T11:49:52.281Z,388
2017-01-07T11:51:01.439Z,380
2017-01-07T11:52:10.579Z,376
2017-01-07T11:53:20.081Z,368
2017-01-07T11:54:28.800Z,352
2017-01-07T11:55:37.501Z,340
2017-01-07T11:56:46.191Z,332
2017-01-07T11:57:56.073Z,332
2017-01-07T11:59:04.802Z,344
2017-01-07T12:00:13.902Z,352
2017-01-07T12:01:23.010Z,356
2017-01-07T12:02:31.713Z,348
2017-01-07T12:03:40.810Z,340
2017-01-07T12:04:49.523Z,336
2017-01-07T12:05:58.709Z,332
2017-01-07T12:07:07.879Z,332
2017-01-07T12:08:17.040Z,336
2017-01-07T12:09:25.806Z,344
2017-01-07T12:10:35.250Z,352
2017-01-07T12:11:43.995Z,344
2017-01-07T12:12:52.757Z,344
2017-01-07T12:14:01.887Z,356
2017-01-07T12:15:11.383Z,364
2017-01-07T12:16:20.105Z,372
2017-01-07T12:17:29.991Z,388
2017-01-07T12:18:39.079Z,396
2017-01-07T12:19:49.004Z,416
2017-01-07T12:20:57.697Z,396
2017-01-07T12:22:06.382Z,388
2017-01-07T12:23:15.871Z,372
2017-01-07T12:24:24.633Z,376
2017-01-07T12:25:33.315Z,384
2017-01-07T12:26:42.430Z,380
2017-01-07T12:27:51.922Z,368
2017-01-07T12:29:00.655Z,372
2017-01-07T12:30:09.749Z,364
2017-01-07T12:31:18.845Z,376
2017-01-07T12:32:28.339Z,384
2017-01-07T12:33:37.872Z,392
2017-01-07T12:34:46.956Z,388
2017-01-07T12:35:55.653Z,380
2017-01-07T12:37:04.365Z,376
2017-01-07T12:38:13.074Z,368
2017-01-07T12:39:22.540Z,368
2017-01-07T12:40:31.669Z,368
2017-01-07T12:41:41.182Z,356
2017-01-07T12:42:50.283Z,356
2017-01-07T12:43:59.743Z,348
2017-01-07T12:45:08.473Z,348
2017-01-07T12:46:18.344Z,348
2017-01-07T12:47:27.856Z,348
2017-01-07T12:48:36.546Z,344
2017-01-07T12:49:45.660Z,360
2017-01-07T12:50:55.200Z,356
2017-01-07T12:52:03.924Z,352
2017-01-07T12:53:13.027Z,344
2017-01-07T12:54:22.105Z,340
2017-01-07T12:55:30.804Z,320
2017-01-07T12:56:39.509Z,300
2017-01-07T12:57:48.248Z,292
2017-01-07T12:58:56.969Z,276
2017-01-07T13:00:05.702Z,264
2017-01-07T13:01:16.009Z,268
2017-01-07T13:02:25.168Z,284
2017-01-07T13:03:34.254Z,296
2017-01-07T13:04:42.984Z,292
2017-01-07T13:05:52.462Z,284
2017-01-07T13:07:01.983Z,276
2017-01-07T13:08:11.090Z,288
2017-01-07T13:09:19.842Z,304
2017-01-07T13:10:28.989Z,336
2017-01-07T13:11:37.736Z,368
2017-01-07T13:12:46.834Z,388
2017-01-07T13:13:55.973Z,400
2017-01-07T13:15:04.705Z,384
2017-01-07T13:16:14.958Z,348
2017-01-07T13:17:24.432Z,320
2017-01-07T13:18:34.718Z,300
2017-01-07T13:19:43.431Z,300
2017-01-07T13:20:52.122Z,288
2017-01-07T13:22:01.207Z,264
2017-01-07T13:23:10.293Z,248
2017-01-07T13:24:19.045Z,236
2017-01-07T13:25:29.213Z,236
2017-01-07T13:26:38.328Z,244
2017-01-07T13:27:47.389Z,256
2017-01-07T13:28:56.480Z,256
2017-01-07T13:30:05.570Z,260
2017-01-07T13:31:14.656Z,260
2017-01-07T13:32:23.361Z,260
2017-01-07T13:33:32.059Z,260
2017-01-07T13:34:41.562Z,272
2017-01-07T13:35:50.668Z,276
2017-01-07T13:36:59.399Z,272
2017-01-07T13:38:08.089Z,268
2017-01-07T13:39:17.171Z,264
2017-01-07T13:40:25.864Z,260
2017-01-07T13:41:34.983Z,260
2017-01-07T13:42:43.691Z,252
2017-01-07T13:43:53.172Z,240
2017-01-07T13:45:01.885Z,228
2017-01-07T13:46:11.390Z,216
2017-01-07T13:47:20.477Z,204
2017-01-07T13:48:29.574Z,196
2017-01-07T13:49:39.112Z,192
2017-01-07T13:50:48.192Z,180
2017-01-07T13:51:56.925Z,168
2017-01-07T13:53:05.615Z,164
2017-01-07T13:54:15.106Z,156
2017-01-07T13:55:23.895Z,156
2017-01-07T13:56:32.647Z,148
2017-01-07T13:57:41.751Z,144
2017-01-07T13:58:50.850Z,140
2017-01-07T14:00:00.026Z,144
2017-01-07T14:01:08.774Z,144
2017-01-07T14:02:18.655Z,148
2017-01-07T14:03:27.743Z,148
2017-01-07T14:04:36.815Z,144
2017-01-07T14:05:45.908Z,140
2017-01-07T14:06:55.392Z,140
2017-01-07T14:08:04.868Z,140
2017-01-07T14:09:13.962Z,140
2017-01-07T14:10:23.074Z,140
2017-01-07T14:11:32.549Z,136
2017-01-07T14:12:42.018Z,132
2017-01-07T14:13:50.754Z,124
2017-01-07T14:15:00.227Z,124
2017-01-07T14:16:09.323Z,124
2017-01-07T14:17:18.020Z,120
2017-01-07T14:18:27.114Z,116
2017-01-07T14:19:35.806Z,112
2017-01-07T14:20:44.924Z,112
2017-01-07T14:21:54.840Z,108
2017-01-07T14:23:04.324Z,104
2017-01-07T14:24:13.441Z,104
2017-01-07T14:25:22.124Z,100
2017-01-07T14:26:30.838Z,96
2017-01-07T14:27:39.546Z,92
2017-01-07T14:28:49.015Z,92
2017-01-07T14:29:58.123Z,92
2017-01-07T14:31:07.204Z,96
2017-01-07T14:32:16.315Z,96
2017-01-07T14:33:25.796Z,96
2017-01-07T14:34:34.548Z,96
2017-01-07T14:35:43.639Z,92
2017-01-07T14:36:52.348Z,92
2017-01-07T14:38:01.074Z,96
2017-01-07T14:39:09.791Z,96
2017-01-07T14:40:18.484Z,96
2017-01-07T14:41:27.210Z,92
2017-01-07T14:42:36.327Z,96
2017-01-07T14:43:45.409Z,92
2017-01-07T14:44:54.531Z,96
2017-01-07T14:46:03.634Z,96
2017-01-07T14:47:13.146Z,96
2017-01-07T14:48:21.877Z,96
2017-01-07T14:49:30.990Z,92
2017-01-07T14:50:40.133Z,88
2017-01-07T14:51:49.221Z,84
2017-01-07T14:52:58.355Z,80
2017-01-07T14:54:08.235Z,76
2017-01-07T14:55:17.308Z,72
2017-01-07T14:56:27.170Z,72
2017-01-07T14:57:36.263Z,68
2017-01-07T14:58:45.349Z,72
2017-01-07T14:59:54.448Z,68
2017-01-07T15:01:03.964Z,68
2017-01-07T15:02:13.429Z,68
2017-01-07T15:03:22.116Z,68
2017-01-07T15:04:31.218Z,68
2017-01-07T15:05:40.323Z,64
2017-01-07T15:06:49.011Z,64
2017-01-07T15:07:57.697Z,64
2017-01-07T15:09:06.788Z,60
2017-01-07T15:10:15.483Z,60
2017-01-07T15:11:24.169Z,56
2017-01-07T15:12:33.678Z,52
2017-01-07T15:13:42.777Z,48
2017-01-07T15:14:51.857Z,44
2017-01-07T15:16:01.603Z,44
2017-01-07T15:17:11.486Z,44
2017-01-07T15:18:20.569Z,36
2017-01-07T15:19:29.662Z,36
2017-01-07T15:20:39.150Z,32
2017-01-07T15:21:47.851Z,28
2017-01-07T15:22:57.354Z,28
2017-01-07T15:24:06.031Z,24
2017-01-07T15:25:14.724Z,24
2017-01-07T15:26:23.417Z,28
2017-01-07T15:27:32.881Z,20
2017-01-07T15:28:41.948Z,20
2017-01-07T15:29:51.040Z,20
2017-01-07T15:30:59.739Z,20
2017-01-07T15:32:09.219Z,20
2017-01-07T15:33:17.938Z,16
2017-01-07T15:34:27.398Z,16
2017-01-07T15:35:36.100Z,16
2017-01-07T15:36:44.820Z,12
2017-01-07T15:37:53.920Z,12
2017-01-07T15:39:03.401Z,12
2017-01-07T15:40:12.494Z,12
2017-01-07T15:41:21.563Z,8
2017-01-07T15:42:31.047Z,12
2017-01-07T15:43:39.729Z,8
2017-01-07T15:44:48.413Z,8
2017-01-07T15:45:58.275Z,8
2017-01-07T15:47:06.964Z,8
2017-01-07T15:48:15.691Z,8
2017-01-07T15:49:24.819Z,8
2017-01-07T15:50:34.329Z,8
2017-01-07T15:51:43.820Z,4
2017-01-07T15:52:52.912Z,4
2017-01-07T15:54:02.778Z,4
2017-01-07T15:55:11.889Z,0
2017-01-07T15:56:20.599Z,4
2017-01-07T15:57:29.296Z,4
2017-01-07T15:58:38.784Z,0
2017-01-07T15:59:47.483Z,4
2017-01-07T16:00:56.172Z,4
2017-01-07T16:02:04.876Z,0
2017-01-07T16:03:13.560Z,0
2017-01-07T16:04:22.682Z,0
2017-01-07T16:05:31.790Z,0
2017-01-07T16:06:40.882Z,0
2017-01-07T16:07:50.365Z,0
2017-01-07T16:08:59.061Z,0
2017-01-07T16:10:08.536Z,0
2017-01-07T16:11:17.628Z,0
2017-01-07T16:12:26.704Z,0
2017-01-07T16:13:35.800Z,0
2017-01-07T16:14:44.890Z,0
2017-01-07T16:15:54.416Z,0
2017-01-07T16:17:03.908Z,0
2017-01-07T16:18:12.630Z,0
2017-01-07T16:19:21.787Z,0
2017-01-07T16:20:31.285Z,0
2017-01-07T16:21:40.426Z,0
2017-01-07T16:22:49.521Z,0
2017-01-07T16:23:59.018Z,0
2017-01-07T16:25:08.118Z,0
2017-01-07T16:26:17.602Z,0
2017-01-07T16:27:27.488Z,0
2017-01-07T16:28:36.179Z,0
2017-01-07T16:29:45.256Z,0
2017-01-07T16:30:54.012Z,0